createdAt,value
2018-12-23T03:00:19.785Z,90.00
2018-12-23T03:02:47.957Z,90.20
2018-12-23T03:05:16.085Z,90.40
2018-12-23T03:07:44.245Z,90.30
2018-12-23T03:10:12.369Z,90.20
2018-12-23T03:12:40.780Z,90.10
2018-12-23T03:15:08.901Z,89.50
2018-12-23T03:17:37.081Z,89.20
2018-12-23T03:20:05.728Z,88.40
2018-12-23T03:22:34.092Z,88.90
2018-12-23T03:25:03.649Z,88.70
2018-12-23T03:27:31.760Z,89.20
2018-12-23T03:30:00.165Z,89.50
2018-12-23T03:32:30.858Z,89.20
2018-12-23T03:34:58.987Z,89.20
2018-12-23T03:37:27.415Z,89.30
2018-12-23T03:39:55.592Z,89.40
2018-12-23T03:42:23.784Z,88.70
2018-12-23T03:44:51.925Z,89.60
2018-12-23T03:47:20.056Z,90.00
2018-12-23T03:49:48.289Z,89.20
2018-12-23T03:52:16.437Z,89.40
2018-12-23T03:54:44.586Z,89.30
2018-12-23T03:57:12.882Z,89.20
2018-12-23T03:59:41.060Z,89.30
2018-12-23T04:02:09.477Z,89.40
2018-12-23T04:04:37.639Z,89.60
2018-12-23T04:07:05.805Z,89.50
2018-12-23T04:09:34.053Z,89.40
2018-12-23T04:12:04.101Z,89.10
2018-12-23T04:14:32.512Z,88.70
2018-12-23T04:17:00.934Z,88.30
2018-12-23T04:19:30.444Z,88.60
2018-12-23T04:21:58.576Z,88.70
2018-12-23T04:24:26.758Z,88.70
2018-12-23T04:26:55.128Z,88.90
2018-12-23T04:29:23.316Z,89.60
2018-12-23T04:31:51.756Z,89.20
2018-12-23T04:34:19.923Z,89.50
2018-12-23T04:36:48.072Z,89.40
2018-12-23T04:39:16.428Z,89.00
2018-12-23T04:41:44.592Z,89.00
2018-12-23T04:44:12.832Z,89.50
2018-12-23T04:46:40.961Z,89.60
2018-12-23T04:49:09.131Z,89.90
2018-12-23T04:51:37.381Z,89.30
2018-12-23T04:54:05.512Z,88.10
2018-12-23T04:56:33.645Z,87.80
2018-12-23T04:59:03.596Z,88.40
2018-12-23T05:01:31.745Z,88.10
2018-12-23T05:04:00.176Z,88.30
2018-12-23T05:06:29.311Z,88.30
2018-12-23T05:08:57.435Z,88.70
2018-12-23T05:11:25.944Z,88.50
2018-12-23T05:13:54.120Z,88.30
2018-12-23T05:16:22.512Z,88.70
2018-12-23T05:18:50.873Z,88.20
2018-12-23T05:21:19.292Z,88.20
2018-12-23T05:23:47.446Z,88.70
2018-12-23T05:26:15.877Z,89.60
2018-12-23T05:28:44.057Z,89.80
2018-12-23T05:31:12.248Z,89.10
2018-12-23T05:33:40.603Z,89.50
2018-12-23T05:36:08.761Z,89.10
2018-12-23T05:38:36.930Z,88.60
2018-12-23T05:41:05.073Z,88.40
2018-12-23T05:43:33.211Z,87.90
2018-12-23T05:46:02.935Z,87.50
2018-12-23T05:48:31.187Z,87.70
2018-12-23T05:50:59.318Z,88.20
2018-12-23T05:53:27.455Z,88.70
2018-12-23T05:55:55.212Z,89.20
2018-12-23T05:58:23.346Z,88.60
2018-12-23T06:00:51.514Z,88.70
2018-12-23T06:03:19.661Z,88.80
2018-12-23T06:05:47.790Z,89.50
2018-12-23T06:08:15.958Z,88.80
2018-12-23T06:10:44.144Z,88.10
2018-12-23T06:13:12.301Z,87.50
2018-12-23T06:15:40.424Z,86.80
2018-12-23T06:18:08.595Z,87.10
2018-12-23T06:20:36.735Z,87.30
2018-12-23T06:23:04.859Z,88.20
2018-12-23T06:28:07.569Z,88.10
2018-12-23T06:30:35.695Z,87.10
2018-12-23T06:33:04.088Z,86.30
2018-12-23T06:35:32.247Z,86.10
2018-12-23T06:38:00.375Z,87.80
2018-12-23T06:40:29.951Z,87.90
2018-12-23T06:42:58.110Z,87.40
2018-12-23T06:45:26.230Z,87.50
2018-12-23T06:47:54.393Z,87.20
2018-12-23T06:50:22.661Z,86.50
2018-12-23T06:52:50.814Z,86.80
2018-12-23T06:55:18.984Z,87.50
2018-12-23T06:57:47.122Z,87.00
2018-12-23T07:00:15.285Z,85.50
2018-12-23T07:02:43.423Z,85.80
2018-12-23T07:05:11.541Z,85.70
2018-12-23T07:07:39.705Z,85.80
2018-12-23T07:10:08.323Z,88.20
2018-12-23T07:12:36.482Z,87.20
2018-12-23T07:15:04.773Z,86.80
2018-12-23T07:17:32.902Z,87.20
2018-12-23T07:20:03.334Z,86.70
2018-12-23T07:22:31.460Z,87.40
2018-12-23T07:24:59.601Z,86.70
2018-12-23T07:27:28.029Z,86.90
2018-12-23T07:29:56.159Z,86.80
2018-12-23T07:32:24.401Z,87.20
2018-12-23T07:34:52.565Z,87.70
2018-12-23T07:37:27.451Z,87.70
2018-12-23T07:39:50.857Z,87.70
2018-12-23T07:42:19.029Z,87.40
2018-12-23T07:44:47.222Z,86.70
2018-12-23T07:47:15.423Z,86.60
2018-12-23T07:49:44.390Z,86.80
2018-12-23T07:52:12.567Z,86.20
2018-12-23T07:54:40.750Z,85.90
2018-12-23T07:57:08.891Z,85.10
2018-12-23T07:59:37.266Z,85.50
2018-12-23T08:02:05.404Z,85.00
2018-12-23T08:04:33.579Z,84.50
2018-12-23T08:07:02.497Z,84.70
2018-12-23T08:09:30.630Z,85.50
2018-12-23T08:11:58.785Z,84.80
2018-12-23T08:14:26.919Z,84.80
2018-12-23T08:16:55.434Z,84.60
2018-12-23T08:19:29.473Z,84.60
2018-12-23T08:21:57.646Z,83.80
2018-12-23T08:24:25.771Z,83.10
2018-12-23T08:26:53.923Z,83.90
2018-12-23T08:29:22.406Z,82.50
2018-12-23T08:31:50.574Z,82.50
2018-12-23T08:34:18.732Z,83.00
2018-12-23T08:36:46.867Z,82.80
2018-12-23T08:39:15.135Z,83.80
2018-12-23T08:41:43.300Z,83.10
2018-12-23T08:44:11.420Z,82.70
2018-12-23T08:46:39.607Z,82.50
2018-12-23T08:49:07.757Z,83.10
2018-12-23T08:51:35.885Z,83.10
2018-12-23T08:54:04.102Z,83.10
2018-12-23T08:56:32.295Z,83.60
2018-12-23T08:59:00.418Z,83.30
2018-12-23T09:01:29.123Z,82.80
2018-12-23T09:03:57.331Z,82.20
2018-12-23T09:06:25.455Z,81.80
2018-12-23T09:08:53.610Z,82.30
2018-12-23T09:11:21.752Z,82.10
2018-12-23T09:13:49.915Z,82.10
2018-12-23T09:16:18.340Z,82.90
2018-12-23T09:18:46.488Z,83.40
2018-12-23T09:21:14.649Z,83.20
2018-12-23T09:23:43.186Z,83.30
2018-12-23T09:26:11.318Z,83.10
2018-12-23T09:28:39.449Z,82.90
2018-12-23T09:31:07.655Z,83.40
2018-12-23T09:33:35.791Z,85.00
2018-12-23T09:36:04.549Z,86.00
2018-12-23T09:38:32.678Z,87.10
2018-12-23T09:41:00.801Z,87.00
2018-12-23T09:43:30.371Z,86.00
2018-12-23T09:45:58.503Z,84.20
2018-12-23T09:48:26.767Z,82.90
2018-12-23T09:50:54.894Z,83.50
2018-12-23T09:53:23.026Z,83.80
2018-12-23T09:55:51.256Z,80.10
2018-12-23T09:58:19.447Z,81.00
2018-12-23T10:00:47.647Z,80.20
2018-12-23T10:03:15.831Z,80.70
2018-12-23T10:05:43.975Z,80.10
2018-12-23T10:08:12.167Z,80.70
2018-12-23T10:10:40.302Z,79.80
2018-12-23T10:13:08.438Z,81.80
2018-12-23T10:15:36.647Z,79.50
2018-12-23T10:18:04.769Z,79.30
2018-12-23T10:20:32.968Z,80.10
2018-12-23T10:23:02.599Z,79.60
2018-12-23T10:25:31.162Z,80.20
2018-12-23T10:28:00.011Z,80.20
2018-12-23T10:30:30.038Z,80.50
2018-12-23T10:32:58.225Z,79.80
2018-12-23T10:35:26.352Z,81.10
2018-12-23T10:37:54.550Z,80.60
2018-12-23T10:40:22.674Z,79.30
2018-12-23T10:42:50.866Z,80.10
2018-12-23T10:45:19.003Z,80.80
2018-12-23T10:47:47.200Z,78.60
2018-12-23T10:50:15.333Z,78.80
2018-12-23T10:52:43.558Z,78.40
2018-12-23T10:55:11.764Z,79.70
2018-12-23T10:57:40.825Z,80.00
2018-12-23T11:00:13.842Z,80.80
2018-12-23T11:02:42.095Z,79.30
2018-12-23T11:05:10.233Z,79.30
2018-12-23T11:07:38.426Z,79.70
2018-12-23T11:10:06.564Z,80.70
2018-12-23T11:12:34.746Z,80.30
2018-12-23T11:15:05.791Z,80.00
2018-12-23T11:17:33.980Z,80.30
2018-12-23T11:20:05.694Z,78.80
2018-12-23T11:22:33.843Z,79.90
2018-12-23T11:25:02.965Z,80.30
2018-12-23T11:27:31.098Z,79.60
2018-12-23T11:29:59.314Z,80.10
2018-12-23T11:32:27.458Z,79.40
2018-12-23T11:34:55.610Z,79.20
2018-12-23T11:37:23.825Z,80.70
2018-12-23T11:39:51.942Z,82.70
2018-12-23T11:42:20.175Z,81.10
2018-12-23T11:44:48.393Z,83.10
2018-12-23T11:47:16.534Z,82.50
2018-12-23T11:49:44.663Z,82.00
2018-12-23T11:52:12.857Z,80.50
2018-12-23T11:54:40.986Z,80.10
2018-12-23T11:57:09.139Z,80.10
2018-12-23T11:59:37.324Z,80.50
2018-12-23T12:02:05.462Z,82.60
2018-12-23T12:04:33.662Z,81.70
2018-12-23T12:07:03.499Z,81.70
2018-12-23T12:09:31.674Z,82.10
2018-12-23T12:11:59.805Z,82.00
2018-12-23T12:14:27.924Z,83.00
2018-12-23T12:16:56.178Z,82.50
2018-12-23T12:19:24.358Z,81.60
2018-12-23T12:21:52.489Z,82.10
2018-12-23T12:24:20.636Z,82.60
2018-12-23T12:26:48.822Z,82.40
2018-12-23T12:29:16.964Z,81.70
2018-12-23T12:31:45.156Z,82.10
2018-12-23T12:34:13.285Z,82.80
2018-12-23T12:36:41.418Z,82.20
2018-12-23T12:39:09.618Z,81.90
2018-12-23T12:41:37.740Z,81.60
2018-12-23T12:44:05.927Z,81.90
2018-12-23T12:46:34.051Z,80.70
2018-12-23T12:49:03.713Z,81.80
2018-12-23T12:51:31.903Z,80.90
2018-12-23T12:54:00.043Z,79.00
2018-12-23T12:56:29.606Z,79.10
2018-12-23T12:58:57.830Z,79.00
2018-12-23T13:01:25.975Z,78.00
2018-12-23T13:03:54.110Z,79.20
2018-12-23T13:06:22.322Z,78.50
2018-12-23T13:08:50.521Z,79.00
2018-12-23T13:11:18.645Z,78.50
2018-12-23T13:13:46.850Z,78.60
2018-12-23T13:16:14.994Z,78.70
2018-12-23T13:18:43.191Z,80.80
2018-12-23T13:21:11.372Z,81.50
2018-12-23T13:23:40.601Z,82.70
2018-12-23T13:26:08.797Z,82.80
2018-12-23T13:28:36.949Z,82.90
2018-12-23T13:31:05.139Z,83.40
2018-12-23T13:33:33.644Z,80.60
2018-12-23T13:36:02.513Z,79.70
2018-12-23T13:38:30.869Z,80.20
2018-12-23T13:41:03.770Z,80.40
2018-12-23T13:43:57.493Z,80.50
2018-12-23T13:50:18.636Z,84.20
2018-12-23T13:52:56.984Z,85.80
2018-12-23T13:55:46.295Z,86.70
2018-12-23T13:58:22.085Z,86.60
2018-12-23T14:01:13.583Z,85.60
2018-12-23T14:03:49.124Z,86.40
2018-12-23T14:06:24.531Z,86.20
2018-12-23T14:09:03.438Z,86.20
2018-12-23T14:11:56.657Z,85.60
2018-12-23T14:14:26.098Z,86.40
2018-12-23T14:16:55.478Z,87.30
2018-12-23T14:19:24.864Z,87.80
2018-12-23T14:21:54.316Z,86.60
2018-12-23T14:24:24.270Z,86.40
2018-12-23T14:26:53.739Z,86.40
2018-12-23T14:29:23.095Z,88.10
2018-12-23T14:31:52.813Z,90.10
2018-12-23T14:34:22.364Z,90.10
2018-12-23T14:36:51.824Z,89.70
2018-12-23T14:39:27.014Z,89.70
2018-12-23T14:41:54.523Z,88.70
2018-12-23T14:44:23.600Z,88.00
2018-12-23T14:46:53.166Z,88.40
2018-12-23T14:49:22.584Z,86.90
2018-12-23T14:51:51.962Z,87.30
2018-12-23T14:54:21.351Z,86.90
2018-12-23T14:56:50.834Z,86.80
2018-12-23T14:59:20.214Z,86.40
2018-12-23T15:01:49.625Z,85.40
2018-12-23T15:04:19.064Z,85.70
2018-12-23T15:06:48.515Z,84.60
2018-12-23T15:09:17.898Z,84.90
2018-12-23T15:11:47.307Z,85.10
2018-12-23T15:14:17.412Z,86.00
2018-12-23T15:16:46.822Z,86.60
2018-12-23T15:19:16.259Z,87.10
2018-12-23T15:21:45.634Z,87.20
2018-12-23T15:24:15.685Z,87.00
2018-12-23T15:26:45.264Z,86.50
2018-12-23T15:29:14.644Z,85.40
2018-12-23T15:31:44.035Z,85.30
2018-12-23T15:34:13.491Z,85.60
2018-12-23T15:36:42.884Z,86.10
2018-12-23T15:39:12.276Z,86.00
2018-12-23T15:41:42.650Z,85.80
2018-12-23T15:44:12.026Z,84.80
2018-12-23T15:46:42.355Z,84.20
2018-12-23T15:49:11.741Z,84.50
2018-12-23T15:51:41.135Z,85.10
2018-12-23T15:54:10.580Z,85.70
2018-12-23T15:56:39.966Z,85.30
2018-12-23T15:59:09.359Z,84.80
2018-12-23T16:01:38.812Z,83.90
2018-12-23T16:04:09.273Z,84.10
2018-12-23T16:06:38.720Z,84.10
2018-12-23T16:09:08.095Z,82.70
2018-12-23T16:11:37.611Z,81.70
2018-12-23T16:14:07.001Z,82.70
2018-12-23T16:16:38.025Z,83.30
2018-12-23T16:19:07.471Z,83.70
2018-12-23T16:21:37.094Z,83.80
2018-12-23T16:24:06.484Z,83.50
2018-12-23T16:26:35.869Z,83.40
2018-12-23T16:29:05.317Z,83.50
2018-12-23T16:31:34.705Z,83.70
2018-12-23T16:34:04.750Z,83.10
2018-12-23T16:36:34.203Z,83.40
2018-12-23T16:39:05.179Z,83.60
2018-12-23T16:41:34.639Z,83.80
2018-12-23T16:44:04.012Z,84.40
2018-12-23T16:46:33.589Z,85.20
2018-12-23T16:49:03.039Z,85.00
2018-12-23T16:51:32.474Z,85.00
2018-12-23T16:54:02.267Z,84.80
2018-12-23T16:56:32.279Z,85.00
2018-12-23T16:59:01.834Z,84.30
2018-12-23T17:01:31.219Z,85.50
2018-12-23T17:04:00.607Z,85.50
2018-12-23T17:06:30.051Z,85.50
2018-12-23T17:08:59.444Z,85.60
2018-12-23T17:11:28.882Z,85.90
2018-12-23T17:13:58.362Z,86.10
2018-12-23T17:16:27.736Z,85.20
2018-12-23T17:18:57.197Z,84.50
2018-12-23T17:21:26.649Z,84.50
2018-12-23T17:23:56.042Z,83.60
2018-12-23T17:26:25.435Z,84.90
2018-12-23T17:28:54.907Z,84.50
2018-12-23T17:31:24.290Z,84.60
2018-12-23T17:33:53.749Z,85.00
2018-12-23T17:36:23.137Z,85.00
2018-12-23T17:38:52.526Z,84.40
2018-12-23T17:41:21.988Z,83.50
2018-12-23T17:43:51.478Z,84.10
2018-12-23T17:46:20.871Z,84.50
2018-12-23T17:48:50.256Z,85.20
2018-12-23T17:51:19.704Z,86.00
2018-12-23T17:53:49.477Z,85.50
2018-12-23T17:56:22.127Z,85.30
2018-12-23T17:58:51.527Z,85.80
2018-12-23T18:01:21.024Z,86.10
2018-12-23T18:03:50.461Z,86.60
2018-12-23T18:06:19.954Z,86.60
2018-12-23T18:08:49.307Z,86.20
2018-12-23T18:11:18.785Z,88.10
2018-12-23T18:13:48.152Z,89.30
2018-12-23T18:16:17.581Z,90.10
2018-12-23T18:18:46.981Z,90.20
2018-12-23T18:21:16.367Z,90.40
2018-12-23T18:23:45.817Z,90.50
2018-12-23T18:26:15.280Z,90.20
2018-12-23T18:28:44.666Z,90.30
2018-12-23T18:31:14.048Z,90.40
2018-12-23T18:33:43.789Z,90.30
2018-12-23T18:36:13.176Z,90.30
2018-12-23T18:38:42.564Z,89.80
2018-12-23T18:41:12.019Z,89.40
2018-12-23T18:43:41.414Z,89.30
2018-12-23T18:46:10.795Z,89.20
2018-12-23T18:48:40.346Z,89.50
2018-12-23T18:51:09.738Z,89.00
2018-12-23T18:53:39.782Z,89.00
2018-12-23T18:56:09.235Z,88.90
2018-12-23T18:58:38.619Z,88.60
2018-12-23T19:01:08.097Z,88.10
2018-12-23T19:03:37.632Z,87.50
2018-12-23T19:06:07.362Z,86.60
2018-12-23T19:08:39.590Z,86.30
2018-12-23T19:11:18.059Z,86.10
2018-12-23T19:14:10.699Z,86.30
2018-12-23T19:16:52.547Z,86.60
2018-12-23T19:19:28.107Z,86.80
2018-12-23T19:22:12.679Z,85.90
2018-12-23T19:25:00.441Z,85.80
2018-12-23T19:27:53.509Z,85.70
2018-12-23T19:30:44.454Z,86.10
2018-12-23T19:33:19.684Z,86.40
2018-12-23T19:35:57.938Z,85.50
2018-12-23T19:38:39.299Z,85.40
2018-12-23T19:41:26.860Z,85.80
2018-12-23T19:44:14.507Z,85.40
2018-12-23T19:46:59.609Z,86.00
2018-12-23T19:49:40.934Z,85.10
2018-12-23T19:52:25.585Z,85.10
2018-12-23T19:55:16.019Z,84.40
2018-12-23T19:58:05.120Z,85.50
2018-12-23T20:00:37.842Z,86.10
2018-12-23T20:03:27.318Z,85.90
2018-12-23T20:06:19.995Z,85.30
2018-12-23T20:08:52.649Z,86.20
2018-12-23T20:11:27.940Z,83.70
2018-12-23T20:14:26.864Z,85.40
2018-12-23T20:17:20.638Z,85.90
2018-12-23T20:20:16.111Z,84.90
2018-12-23T20:22:54.508Z,85.50
2018-12-23T20:25:36.120Z,84.60
2018-12-23T20:28:20.886Z,84.40
2018-12-23T20:30:59.314Z,85.20
2018-12-23T20:33:43.370Z,84.30
2018-12-23T20:36:32.870Z,84.60
2018-12-23T20:39:14.302Z,83.50
2018-12-23T20:42:09.757Z,84.60
2018-12-23T20:45:03.562Z,85.00
2018-12-23T20:47:45.114Z,84.80
2018-12-23T20:50:33.180Z,85.00
2018-12-23T20:53:22.391Z,85.00
2018-12-23T20:55:55.121Z,84.90
2018-12-23T20:58:45.786Z,84.20
2018-12-23T21:01:30.609Z,83.30
2018-12-23T21:04:34.309Z,84.40
2018-12-23T21:07:41.605Z,84.00
2018-12-23T21:10:32.575Z,84.50
2018-12-23T21:13:09.144Z,84.80
2018-12-23T21:16:15.229Z,83.80
2018-12-23T21:19:16.754Z,83.30
2018-12-23T21:21:58.828Z,84.50
2018-12-23T21:25:00.308Z,85.20
2018-12-23T21:27:42.021Z,84.70
2018-12-23T21:30:20.195Z,85.20
2018-12-23T21:33:15.254Z,85.80
2018-12-23T21:36:05.355Z,85.00
2018-12-23T21:38:49.358Z,84.70
2018-12-23T21:41:31.130Z,84.50
2018-12-23T21:44:23.082Z,84.20
2018-12-23T21:47:04.816Z,84.50
2018-12-23T21:49:55.704Z,85.10
2018-12-23T21:52:39.565Z,85.60
2018-12-23T21:55:22.079Z,85.90
2018-12-23T21:57:54.732Z,84.80
2018-12-23T22:00:39.083Z,84.50
2018-12-23T22:03:37.687Z,85.00
2018-12-23T22:06:19.761Z,84.60
2018-12-23T22:08:58.319Z,85.60
2018-12-23T22:11:54.083Z,86.90
2018-12-23T22:14:23.461Z,86.80
2018-12-23T22:16:52.915Z,88.50
2018-12-23T22:19:22.304Z,89.40
2018-12-23T22:21:51.746Z,89.30
2018-12-23T22:24:21.106Z,89.20
2018-12-23T22:26:50.511Z,88.50
2018-12-23T22:29:19.928Z,88.10
2018-12-23T22:31:49.304Z,87.60
2018-12-23T22:34:18.743Z,88.00
2018-12-23T22:36:49.036Z,86.80
2018-12-23T22:39:18.453Z,87.00
2018-12-23T22:41:47.865Z,86.60
2018-12-23T22:44:17.245Z,86.00
2018-12-23T22:46:46.666Z,85.10
2018-12-23T22:49:16.058Z,84.70
2018-12-23T22:51:45.427Z,86.30
2018-12-23T22:54:14.850Z,86.20
2018-12-23T22:56:44.259Z,85.40
2018-12-23T22:59:13.687Z,86.10
2018-12-23T23:01:43.164Z,85.60
2018-12-23T23:04:12.538Z,85.00
2018-12-23T23:06:41.921Z,85.80
2018-12-23T23:09:11.331Z,86.60
2018-12-23T23:11:40.723Z,86.50
2018-12-23T23:14:10.124Z,86.10
